TimePDT,TemperatureF,Dew PointF,Humidity,Sea Level PressureIn,VisibilityMPH,Wind Direction,Wind SpeedMPH,Gust SpeedMPH,PrecipitationIn,Events,Conditions,WindDirDegrees,DateUTC
12:52 AM,66.9,14.0,13,29.62,-9999.0,South,11.5,25.3,N/A,,Unknown,180,2013-09-21 07:52:00
1:52 AM,64.0,12.0,13,29.62,-9999.0,SSW,11.5,-,N/A,,Unknown,200,2013-09-21 08:52:00
2:52 AM,60.1,14.0,16,29.64,-9999.0,SSW,9.2,-,N/A,,Unknown,200,2013-09-21 09:52:00
3:52 AM,62.1,21.0,21,29.63,-9999.0,South,12.7,-,N/A,,Unknown,180,2013-09-21 10:52:00
4:52 AM,59.0,27.0,29,29.64,-9999.0,SSE,9.2,-,N/A,,Unknown,150,2013-09-21 11:52:00
5:52 AM,57.0,24.1,28,29.65,-9999.0,SSW,9.2,-,N/A,,Unknown,200,2013-09-21 12:52:00
7:52 AM,57.9,26.1,30,29.70,-9999.0,SE,3.5,-,N/A,,Unknown,140,2013-09-21 14:52:00
8:52 AM,61.0,28.9,30,29.68,-9999.0,North,5.8,-,N/A,,Unknown,10,2013-09-21 15:52:00
9:52 AM,62.1,36.0,38,29.70,-9999.0,North,8.1,-,N/A,,Unknown,10,2013-09-21 16:52:00
10:52 AM,66.0,35.1,32,29.68,-9999.0,North,5.8,-,N/A,,Unknown,360,2013-09-21 17:52:00
11:52 AM,68.0,35.1,30,29.64,-9999.0,NNE,9.2,-,N/A,,Unknown,20,2013-09-21 18:52:00
12:52 PM,68.0,34.0,28,29.62,-9999.0,NW,3.5,-,N/A,,Unknown,310,2013-09-21 19:52:00
1:50 PM,60.8,44.6,55,29.75,-9999.0,WSW,23.0,33.4,N/A,,Unknown,250,2013-09-21 20:50:00
1:52 PM,60.1,44.1,55,29.68,-9999.0,West,16.1,33.4,N/A,,Unknown,260,2013-09-21 20:52:00
2:52 PM,59.0,43.0,55,29.70,-9999.0,West,16.1,-,N/A,,Unknown,260,2013-09-21 21:52:00
3:52 PM,55.0,41.0,59,29.73,-9999.0,WSW,17.3,32.2,N/A,,Unknown,250,2013-09-21 22:52:00
4:52 PM,53.1,39.9,61,29.74,-9999.0,SW,21.9,31.1,N/A,,Unknown,230,2013-09-21 23:52:00
5:52 PM,51.1,41.0,68,29.75,-9999.0,SW,17.3,24.2,N/A,,Unknown,220,2013-09-22 00:52:00
6:52 PM,50.0,39.9,68,29.75,-9999.0,SSW,15.0,-,N/A,,Unknown,210,2013-09-22 01:52:00
7:52 PM,48.0,43.0,83,29.78,-9999.0,South,12.7,18.4,0.02,,Unknown,190,2013-09-22 02:52:00
8:52 PM,48.0,45.0,89,29.74,-9999.0,Calm,Calm,-,0.08,,Unknown,0,2013-09-22 03:52:00
9:52 PM,48.0,43.0,83,29.73,-9999.0,Calm,Calm,-,N/A,,Unknown,0,2013-09-22 04:52:00
10:52 PM,48.0,43.0,83,29.71,-9999.0,SE,3.5,-,N/A,,Unknown,140,2013-09-22 05:52:00
11:52 PM,46.9,45.0,93,29.71,-9999.0,Calm,Calm,-,N/A,,Unknown,0,2013-09-22 06:52:00